Terminal Aerodrome Forecast
Issued by NWS Jackson, MS

Home | Current Version | Previous Version | Text Only | Print | Product List | Glossary On
Versions: 1 2 3 4 5 6 7 8 9 10 11 12 13 14
000
FTUS44 KJAN 291100
TAFMEI
TAF
KMEI 291122Z 2912/3012 01004KT 5SM -DZ OVC003
     FM291700 35005KT P6SM OVC005
     FM292200 36005KT P6SM OVC013
     FM300100 34004KT P6SM OVC007
     FM300500 34005KT 6SM BR OVC003=

USA.gov is the U.S. government's official web portal to all federal, state and local government web resources and services.